Time;durP1;ratioP1;P1;durP2;ratioP2;P2;SDS_P1;SDS_P2;PMS_P1;PMS_P2;Temp;Humidity;BMP_temperature;BMP_pressure;BME280_temperature;BME280_humidity;BME280_pressure;Samples;Min_cycle;Max_cycle;Signal;HPM_P1;HPM_P2
2022/08/07 00:01:50;;;;;;;0.40;0.40;;;18.10;99.90;;;;;;5059053;28;20216;-60
2022/08/07 00:04:17;;;;;;;0.70;0.70;;;18.10;99.90;;;;;;5057703;28;20238;-60
2022/08/07 00:06:44;;;;;;;0.50;0.47;;;18.10;99.90;;;;;;5060313;28;20234;-60
2022/08/07 00:09:11;;;;;;;0.70;0.70;;;18.10;99.90;;;;;;5058619;28;20199;-60
2022/08/07 00:11:39;;;;;;;0.60;0.60;;;18.00;99.90;;;;;;5058401;28;20681;-60
2022/08/07 00:14:06;;;;;;;0.50;0.50;;;17.90;99.90;;;;;;5058650;28;20227;-59
2022/08/07 00:16:33;;;;;;;0.50;0.50;;;18.00;99.90;;;;;;5058954;28;20301;-60
2022/08/07 00:19:00;;;;;;;0.50;0.50;;;18.10;99.90;;;;;;5058416;28;20203;-60
2022/08/07 00:21:27;;;;;;;0.30;0.30;;;18.10;99.90;;;;;;5059014;28;20318;-58
2022/08/07 00:23:53;;;;;;;0.50;0.50;;;18.30;99.90;;;;;;5058725;28;20247;-60
2022/08/07 00:26:20;;;;;;;1.35;0.70;;;18.20;99.90;;;;;;5059691;28;20207;-59
2022/08/07 00:28:49;;;;;;;0.45;0.45;;;18.30;99.90;;;;;;5059942;28;20231;-58
2022/08/07 00:31:15;;;;;;;0.73;0.60;;;18.30;99.90;;;;;;5059816;28;20196;-59
2022/08/07 00:33:42;;;;;;;0.40;0.40;;;18.30;99.90;;;;;;5060157;28;20245;-60
2022/08/07 00:36:09;;;;;;;0.30;0.30;;;18.20;99.90;;;;;;5058731;28;20573;-59
2022/08/07 00:38:36;;;;;;;0.75;0.60;;;18.30;99.90;;;;;;5058217;28;20307;-59
2022/08/07 00:41:04;;;;;;;0.30;0.30;;;18.20;99.90;;;;;;5058622;28;20205;-59
2022/08/07 00:43:31;;;;;;;0.47;0.47;;;18.20;99.90;;;;;;5058363;28;20222;-60
2022/08/07 00:46:00;;;;;;;0.50;0.50;;;18.10;99.90;;;;;;5057865;28;20208;-60
2022/08/07 00:48:27;;;;;;;0.40;0.40;;;18.10;99.90;;;;;;5058685;28;20231;-60
2022/08/07 00:50:56;;;;;;;0.40;0.40;;;18.00;99.90;;;;;;5060378;28;20649;-60
2022/08/07 00:53:23;;;;;;;0.65;0.65;;;18.00;99.90;;;;;;5058531;28;20254;-60
2022/08/07 00:55:50;;;;;;;0.50;0.50;;;18.10;99.90;;;;;;5056866;28;20204;-61
2022/08/07 00:58:20;;;;;;;0.40;0.40;;;18.10;99.90;;;;;;5056938;28;20199;-61
2022/08/07 01:00:47;;;;;;;0.57;0.57;;;18.10;99.90;;;;;;5055207;28;20207;-61
2022/08/07 01:03:15;;;;;;;0.70;0.50;;;18.10;99.90;;;;;;5055014;28;20215;-59
2022/08/07 01:05:44;;;;;;;0.50;0.50;;;18.00;99.90;;;;;;5054486;28;20212;-58
2022/08/07 01:08:11;;;;;;;0.40;0.40;;;17.90;99.90;;;;;;5051596;28;20214;-59
2022/08/07 01:10:38;;;;;;;0.52;0.52;;;17.90;99.90;;;;;;5053127;28;20303;-61
2022/08/07 01:13:05;;;;;;;0.75;0.75;;;18.00;99.90;;;;;;5052947;28;20230;-61
2022/08/07 01:15:34;;;;;;;1.17;0.57;;;18.10;99.90;;;;;;5053249;28;20391;-60
2022/08/07 01:18:01;;;;;;;0.40;0.40;;;18.10;99.90;;;;;;5053224;28;20203;-59
2022/08/07 01:20:35;;;;;;;0.60;0.60;;;18.10;99.90;;;;;;5053928;28;20200;-59
2022/08/07 01:23:04;;;;;;;0.50;0.50;;;18.20;99.90;;;;;;5052979;28;20224;-61
2022/08/07 01:25:33;;;;;;;0.60;0.60;;;18.10;99.90;;;;;;5056559;28;20258;-59
2022/08/07 01:28:00;;;;;;;0.40;0.40;;;17.90;99.90;;;;;;5056813;28;20665;-59
2022/08/07 01:30:28;;;;;;;0.30;0.30;;;17.80;99.90;;;;;;5056405;28;20282;-60
2022/08/07 01:32:56;;;;;;;0.45;0.45;;;17.80;99.90;;;;;;5056871;28;20719;-60
2022/08/07 01:35:22;;;;;;;0.60;0.60;;;17.80;99.90;;;;;;5057138;28;20649;-59
2022/08/07 01:37:50;;;;;;;0.47;0.47;;;17.80;99.90;;;;;;5056768;28;20279;-60
2022/08/07 01:40:20;;;;;;;1.13;0.70;;;17.80;99.90;;;;;;5057779;28;20748;-59
2022/08/07 01:42:47;;;;;;;0.60;0.60;;;17.70;99.90;;;;;;5056828;28;20215;-59
2022/08/07 01:45:15;;;;;;;0.50;0.50;;;17.70;99.90;;;;;;5056042;28;20209;-62
2022/08/07 01:47:42;;;;;;;0.45;0.45;;;17.70;99.90;;;;;;5055714;28;20219;-61
2022/08/07 01:50:10;;;;;;;0.43;0.43;;;17.60;99.90;;;;;;5056439;28;20576;-60
2022/08/07 01:52:40;;;;;;;0.70;0.70;;;17.60;99.90;;;;;;5055481;28;20279;-60
2022/08/07 01:55:10;;;;;;;0.50;0.50;;;17.60;99.90;;;;;;5056086;28;20195;-60
2022/08/07 01:57:41;;;;;;;0.38;0.38;;;17.60;99.90;;;;;;5056467;28;20608;-61
2022/08/07 02:00:11;;;;;;;0.50;0.50;;;17.60;99.90;;;;;;5057373;28;20744;-62
2022/08/07 02:02:42;;;;;;;0.40;0.40;;;17.60;99.90;;;;;;5061340;28;20206;-61
2022/08/07 02:05:13;;;;;;;0.45;0.45;;;17.60;99.90;;;;;;5060148;28;20204;-61
2022/08/07 02:07:45;;;;;;;0.50;0.50;;;17.60;99.90;;;;;;5059851;28;20593;-61
2022/08/07 02:10:13;;;;;;;0.38;0.38;;;17.50;99.90;;;;;;5059504;28;20301;-58
2022/08/07 02:12:45;;;;;;;0.50;0.50;;;17.50;99.90;;;;;;5065139;28;20555;-61
2022/08/07 02:15:13;;;;;;;0.40;0.40;;;17.40;99.90;;;;;;5059566;28;20212;-60
2022/08/07 02:17:42;;;;;;;0.50;0.50;;;17.30;99.90;;;;;;5059728;28;20200;-61
2022/08/07 02:20:11;;;;;;;0.47;0.47;;;17.20;99.90;;;;;;5059702;28;20206;-59
2022/08/07 02:22:39;;;;;;;0.50;0.50;;;17.10;99.90;;;;;;5058865;28;20231;-61
2022/08/07 02:25:08;;;;;;;0.52;0.52;;;17.20;99.90;;;;;;5060118;28;20282;-59
2022/08/07 02:27:37;;;;;;;0.57;0.52;;;17.10;99.90;;;;;;5059206;28;21211;-59
2022/08/07 02:30:07;;;;;;;0.40;0.40;;;17.00;99.90;;;;;;5059719;28;20298;-61
2022/08/07 02:32:36;;;;;;;2.00;0.52;;;16.90;99.90;;;;;;5059791;28;20223;-60
2022/08/07 02:35:04;;;;;;;0.47;0.40;;;16.80;99.90;;;;;;5058750;28;20693;-58
2022/08/07 02:37:33;;;;;;;0.47;0.47;;;16.80;99.90;;;;;;5059632;28;20200;-59
2022/08/07 02:40:02;;;;;;;0.38;0.38;;;16.80;99.90;;;;;;5060510;28;20236;-59
2022/08/07 02:42:30;;;;;;;0.40;0.40;;;16.90;99.90;;;;;;5059952;28;20323;-61
2022/08/07 02:44:57;;;;;;;0.40;0.40;;;16.80;99.90;;;;;;5058693;28;20207;-60
2022/08/07 02:47:26;;;;;;;0.25;0.25;;;16.70;99.90;;;;;;5058926;28;20248;-60
2022/08/07 02:49:53;;;;;;;0.60;0.60;;;16.60;99.90;;;;;;5059651;28;20775;-60
2022/08/07 02:52:26;;;;;;;0.40;0.40;;;16.60;99.90;;;;;;5059209;28;20215;-59
2022/08/07 02:54:55;;;;;;;0.65;0.65;;;16.70;99.90;;;;;;5059064;28;20212;-58
2022/08/07 02:57:22;;;;;;;0.40;0.40;;;16.70;99.90;;;;;;5060173;28;20344;-59
2022/08/07 02:59:50;;;;;;;0.43;0.43;;;16.60;99.90;;;;;;5058848;28;20769;-59
2022/08/07 03:02:18;;;;;;;0.50;0.50;;;16.70;99.90;;;;;;5059039;28;20666;-58
2022/08/07 03:04:48;;;;;;;0.50;0.50;;;16.60;99.90;;;;;;5057790;28;20236;-59
2022/08/07 03:07:16;;;;;;;0.43;0.43;;;16.70;99.90;;;;;;5058720;28;20207;-59
2022/08/07 03:09:44;;;;;;;0.40;0.40;;;16.60;99.90;;;;;;5059559;28;20523;-59
2022/08/07 03:12:13;;;;;;;0.38;0.38;;;16.60;99.90;;;;;;5058334;28;20295;-59
2022/08/07 03:14:41;;;;;;;0.50;0.50;;;16.60;99.90;;;;;;5058855;28;20274;-59
2022/08/07 03:17:08;;;;;;;0.50;0.50;;;16.60;99.90;;;;;;5058898;28;20207;-59
2022/08/07 03:19:36;;;;;;;0.50;0.50;;;16.50;99.90;;;;;;5059281;28;20209;-59
2022/08/07 03:22:05;;;;;;;0.43;0.43;;;16.50;99.90;;;;;;5059267;28;20239;-59
2022/08/07 03:24:33;;;;;;;0.60;0.60;;;16.50;99.90;;;;;;5059699;28;20323;-60
2022/08/07 03:27:02;;;;;;;0.40;0.40;;;16.50;99.90;;;;;;5059330;28;20260;-59
2022/08/07 03:29:33;;;;;;;0.38;0.38;;;16.50;99.90;;;;;;5058381;28;20203;-59
2022/08/07 03:32:04;;;;;;;0.60;0.60;;;16.60;99.90;;;;;;5059405;28;20606;-59
2022/08/07 03:34:32;;;;;;;0.35;0.35;;;16.60;99.90;;;;;;5059354;28;20325;-60
2022/08/07 03:37:01;;;;;;;0.65;0.65;;;16.50;99.90;;;;;;5058754;28;20199;-60
2022/08/07 03:39:33;;;;;;;0.60;0.60;;;16.50;99.90;;;;;;5058593;28;20204;-58
2022/08/07 03:42:01;;;;;;;0.40;0.40;;;16.40;99.90;;;;;;5059179;28;20300;-59
2022/08/07 03:44:29;;;;;;;0.57;0.57;;;16.30;99.90;;;;;;5058329;28;20974;-59
2022/08/07 03:46:56;;;;;;;0.40;0.40;;;16.20;99.90;;;;;;5058550;28;20207;-58
2022/08/07 03:49:23;;;;;;;0.60;0.60;;;16.20;99.90;;;;;;5060110;28;20765;-59
2022/08/07 03:51:51;;;;;;;0.47;0.47;;;16.20;99.90;;;;;;5059384;28;20208;-59
2022/08/07 03:54:18;;;;;;;0.50;0.50;;;16.40;99.90;;;;;;5058940;28;20232;-60
2022/08/07 03:56:46;;;;;;;0.45;0.45;;;16.30;99.90;;;;;;5059292;28;21014;-59
2022/08/07 03:59:14;;;;;;;0.73;0.40;;;16.40;99.90;;;;;;5058628;28;20760;-59
2022/08/07 04:01:42;;;;;;;0.55;0.55;;;16.40;99.90;;;;;;5059179;28;20211;-58
2022/08/07 04:04:09;;;;;;;0.60;0.60;;;16.40;99.90;;;;;;5059588;28;20365;-59
2022/08/07 04:06:39;;;;;;;0.40;0.40;;;16.40;99.90;;;;;;5059539;28;20694;-59
2022/08/07 04:09:07;;;;;;;0.50;0.50;;;16.40;99.90;;;;;;5058713;28;20603;-59
2022/08/07 04:11:34;;;;;;;0.50;0.50;;;16.30;99.90;;;;;;5058687;28;20218;-58
2022/08/07 04:14:03;;;;;;;0.50;0.50;;;16.30;99.90;;;;;;5059056;28;20238;-60
2022/08/07 04:16:31;;;;;;;0.40;0.40;;;16.30;99.90;;;;;;5057763;28;20210;-60
2022/08/07 04:18:58;;;;;;;0.60;0.60;;;16.20;99.90;;;;;;5058333;28;20749;-61
2022/08/07 04:21:25;;;;;;;0.70;0.70;;;16.20;99.90;;;;;;5058422;28;20356;-60
2022/08/07 04:23:53;;;;;;;0.38;0.38;;;16.40;99.90;;;;;;5057165;28;20216;-60
2022/08/07 04:26:20;;;;;;;0.40;0.40;;;16.40;99.90;;;;;;5058553;28;21217;-60
2022/08/07 04:28:47;;;;;;;0.35;0.35;;;16.30;99.90;;;;;;5058351;28;20654;-59
2022/08/07 04:31:16;;;;;;;0.55;0.55;;;16.30;99.90;;;;;;5058509;28;20207;-60
2022/08/07 04:33:45;;;;;;;0.20;0.20;;;16.30;99.90;;;;;;5057855;28;20338;-61
2022/08/07 04:36:14;;;;;;;0.65;0.65;;;16.30;99.90;;;;;;5057970;28;20298;-60
2022/08/07 04:38:41;;;;;;;0.47;0.47;;;16.40;99.90;;;;;;5058541;28;20638;-60
2022/08/07 04:41:09;;;;;;;0.70;0.47;;;16.30;99.90;;;;;;5057591;28;20207;-59
2022/08/07 04:43:38;;;;;;;0.70;0.70;;;16.20;99.90;;;;;;5056916;28;20256;-61
2022/08/07 04:46:10;;;;;;;0.37;0.37;;;16.20;99.90;;;;;;5057052;28;20286;-60
2022/08/07 04:48:47;;;;;;;0.52;0.52;;;16.20;99.90;;;;;;5057653;28;20235;-60
2022/08/07 04:51:26;;;;;;;0.57;0.57;;;16.20;99.90;;;;;;5057575;28;20206;-61
2022/08/07 04:53:59;;;;;;;0.73;0.47;;;16.30;99.90;;;;;;5056901;28;20231;-59
2022/08/07 04:56:31;;;;;;;0.70;0.70;;;16.20;99.90;;;;;;5056998;28;20741;-60
2022/08/07 04:59:05;;;;;;;0.85;0.50;;;16.30;99.90;;;;;;5057177;28;20204;-59
2022/08/07 05:01:42;;;;;;;0.40;0.40;;;16.30;99.90;;;;;;5057111;28;20565;-59
2022/08/07 05:04:16;;;;;;;1.55;0.80;;;16.30;99.90;;;;;;5056974;28;20633;-61
2022/08/07 05:06:53;;;;;;;0.60;0.60;;;16.30;99.90;;;;;;5058413;28;20203;-61
2022/08/07 05:09:29;;;;;;;0.52;0.52;;;16.40;99.90;;;;;;5057648;28;20207;-61
2022/08/07 05:11:58;;;;;;;0.70;0.50;;;16.40;99.90;;;;;;5056513;28;20199;-61
2022/08/07 05:14:28;;;;;;;0.57;0.57;;;16.40;99.90;;;;;;5056832;28;20240;-61
2022/08/07 05:17:00;;;;;;;0.40;0.40;;;16.40;99.90;;;;;;5057244;28;20212;-60
2022/08/07 05:19:35;;;;;;;0.40;0.40;;;16.40;99.90;;;;;;5057530;28;20286;-60
2022/08/07 05:22:04;;;;;;;0.43;0.43;;;16.60;99.90;;;;;;5058822;28;20200;-61
2022/08/07 05:24:31;;;;;;;0.60;0.60;;;16.70;99.90;;;;;;5056924;28;20220;-60
2022/08/07 05:27:00;;;;;;;0.30;0.30;;;16.80;99.90;;;;;;5058906;28;20203;-60
2022/08/07 05:29:28;;;;;;;0.35;0.35;;;17.20;99.90;;;;;;5057828;28;20595;-59
2022/08/07 05:31:56;;;;;;;0.30;0.30;;;17.30;99.90;;;;;;5057010;28;20298;-60
2022/08/07 05:34:24;;;;;;;0.55;0.55;;;17.40;99.90;;;;;;5056545;28;20223;-59
2022/08/07 05:36:55;;;;;;;0.40;0.40;;;17.60;99.90;;;;;;5057275;28;20213;-59
2022/08/07 05:39:23;;;;;;;0.40;0.40;;;17.90;99.90;;;;;;5056929;28;20219;-60
2022/08/07 05:41:51;;;;;;;0.52;0.52;;;18.00;99.90;;;;;;5057145;28;20282;-60
2022/08/07 05:44:19;;;;;;;0.55;0.55;;;18.00;99.90;;;;;;5058819;28;20226;-59
2022/08/07 05:46:49;;;;;;;0.60;0.60;;;18.20;99.90;;;;;;5059079;28;20199;-60
2022/08/07 05:49:16;;;;;;;0.38;0.38;;;18.30;99.90;;;;;;5059122;28;20679;-61
2022/08/07 05:51:45;;;;;;;0.50;0.50;;;18.30;99.90;;;;;;5059756;28;20219;-58
2022/08/07 05:54:13;;;;;;;0.60;0.60;;;18.30;99.90;;;;;;5057989;28;20337;-60
2022/08/07 05:56:42;;;;;;;0.40;0.40;;;18.30;99.90;;;;;;5058293;28;20582;-60
2022/08/07 05:59:14;;;;;;;0.47;0.47;;;18.20;99.90;;;;;;5057198;28;20211;-60
2022/08/07 06:01:42;;;;;;;0.73;0.73;;;18.20;99.90;;;;;;5057727;28;20302;-60
2022/08/07 06:04:10;;;;;;;0.50;0.50;;;18.30;99.90;;;;;;5056750;28;20246;-59
2022/08/07 06:06:38;;;;;;;0.63;0.63;;;18.40;99.90;;;;;;5058261;28;20649;-59
2022/08/07 06:09:05;;;;;;;1.38;0.80;;;18.30;99.90;;;;;;5058922;28;20277;-59
2022/08/07 06:11:34;;;;;;;0.60;0.60;;;18.20;99.90;;;;;;5059459;28;20203;-59
2022/08/07 06:14:01;;;;;;;0.77;0.60;;;18.10;99.90;;;;;;5058032;28;20247;-61
2022/08/07 06:16:33;;;;;;;3.13;0.80;;;18.20;99.90;;;;;;5059635;28;20674;-59
2022/08/07 06:19:01;;;;;;;0.77;0.73;;;18.20;99.90;;;;;;5057621;28;20245;-61
2022/08/07 06:21:28;;;;;;;0.60;0.60;;;18.30;99.90;;;;;;5057876;28;20211;-60
2022/08/07 06:23:55;;;;;;;1.80;0.80;;;18.50;99.90;;;;;;5058386;28;20588;-61
2022/08/07 06:26:23;;;;;;;0.73;0.50;;;18.70;99.90;;;;;;5057830;28;20231;-59
2022/08/07 06:28:52;;;;;;;0.80;0.80;;;18.80;99.90;;;;;;5058339;28;20283;-60
2022/08/07 06:31:20;;;;;;;0.63;0.60;;;18.90;99.90;;;;;;5057970;28;20204;-61
2022/08/07 06:33:47;;;;;;;0.68;0.68;;;18.90;99.90;;;;;;5056572;28;20357;-59
2022/08/07 06:36:14;;;;;;;1.10;0.80;;;18.90;99.90;;;;;;5053962;28;20206;-59
2022/08/07 06:38:42;;;;;;;0.50;0.50;;;18.80;99.90;;;;;;5058288;28;20659;-59
2022/08/07 06:41:15;;;;;;;0.50;0.50;;;18.80;99.90;;;;;;5057819;28;20258;-58
2022/08/07 06:43:44;;;;;;;0.52;0.52;;;18.80;99.90;;;;;;5057957;28;20247;-58
2022/08/07 06:46:13;;;;;;;0.82;0.65;;;18.80;99.90;;;;;;5059233;28;20290;-59
2022/08/07 06:48:41;;;;;;;0.55;0.55;;;18.90;99.90;;;;;;5059972;28;20203;-60
2022/08/07 06:51:10;;;;;;;0.70;0.70;;;19.00;99.90;;;;;;5060232;28;20704;-61
2022/08/07 06:53:39;;;;;;;0.50;0.50;;;19.20;99.90;;;;;;5061093;28;20224;-60
2022/08/07 06:56:08;;;;;;;1.05;0.82;;;19.40;99.90;;;;;;5061720;28;20579;-60
2022/08/07 06:58:36;;;;;;;0.60;0.60;;;19.30;99.90;;;;;;5061467;28;20291;-60
2022/08/07 07:01:07;;;;;;;0.47;0.47;;;19.40;99.90;;;;;;5060538;28;20242;-59
2022/08/07 07:03:39;;;;;;;0.55;0.55;;;19.60;99.90;;;;;;5059575;28;20313;-59
2022/08/07 07:06:07;;;;;;;0.40;0.40;;;19.80;99.90;;;;;;5059474;28;20199;-59
2022/08/07 07:08:34;;;;;;;0.50;0.50;;;19.90;99.90;;;;;;5061156;28;20203;-60
2022/08/07 07:11:02;;;;;;;0.60;0.60;;;20.10;99.90;;;;;;5061834;28;20298;-60
2022/08/07 07:13:35;;;;;;;0.40;0.40;;;20.20;99.90;;;;;;5062218;28;20339;-59
2022/08/07 07:16:09;;;;;;;0.80;0.77;;;20.40;99.90;;;;;;5060805;28;20777;-59
2022/08/07 07:18:41;;;;;;;0.50;0.50;;;20.50;99.90;;;;;;5056172;28;20199;-59
2022/08/07 07:21:15;;;;;;;1.48;0.50;;;20.50;99.90;;;;;;5057231;28;20199;-59
2022/08/07 07:23:42;;;;;;;1.35;0.80;;;20.60;99.90;;;;;;5059087;28;20347;-60
2022/08/07 07:26:14;;;;;;;0.70;0.60;;;20.70;99.90;;;;;;5060538;28;20295;-59
2022/08/07 07:28:45;;;;;;;1.00;0.60;;;20.70;99.90;;;;;;5058461;28;20329;-61
2022/08/07 07:31:16;;;;;;;0.50;0.50;;;20.90;99.90;;;;;;5066339;28;20290;-61
2022/08/07 07:33:46;;;;;;;0.60;0.60;;;21.00;99.90;;;;;;5060272;28;20269;-59
2022/08/07 07:36:13;;;;;;;0.57;0.55;;;21.10;99.90;;;;;;5058375;28;20235;-60
2022/08/07 07:38:41;;;;;;;0.60;0.60;;;21.10;99.90;;;;;;5061520;28;20203;-59
2022/08/07 07:41:12;;;;;;;0.60;0.60;;;21.00;99.90;;;;;;5060694;28;20750;-59
2022/08/07 07:43:42;;;;;;;0.73;0.60;;;21.10;99.90;;;;;;5061815;28;20618;-60
2022/08/07 07:46:10;;;;;;;0.60;0.60;;;21.20;99.90;;;;;;5063163;28;20594;-60
2022/08/07 07:48:40;;;;;;;0.60;0.60;;;21.30;99.90;;;;;;5069004;28;20199;-60
2022/08/07 07:51:10;;;;;;;0.80;0.80;;;21.50;99.90;;;;;;5063748;28;20213;-59
2022/08/07 07:53:40;;;;;;;0.50;0.50;;;21.60;99.90;;;;;;5062682;28;20223;-58
2022/08/07 07:56:08;;;;;;;0.60;0.60;;;21.60;99.90;;;;;;5067031;28;20211;-62
2022/08/07 07:58:38;;;;;;;0.95;0.77;;;21.70;99.90;;;;;;5069546;28;20286;-61
2022/08/07 08:01:06;;;;;;;0.65;0.65;;;22.00;99.90;;;;;;5073489;28;20684;-61
2022/08/07 08:03:35;;;;;;;0.73;0.73;;;22.10;99.90;;;;;;5066504;28;20250;-61
2022/08/07 08:06:03;;;;;;;0.60;0.60;;;22.20;99.90;;;;;;5063214;28;20199;-59
2022/08/07 08:08:32;;;;;;;0.50;0.50;;;22.20;99.90;;;;;;5065457;28;20202;-60
2022/08/07 08:11:00;;;;;;;1.13;0.60;;;22.30;99.90;;;;;;5066001;28;20209;-62
2022/08/07 08:13:29;;;;;;;0.50;0.50;;;22.30;99.90;;;;;;5067210;28;20223;-60
2022/08/07 08:16:00;;;;;;;0.60;0.60;;;22.40;99.90;;;;;;5071201;28;20223;-60
2022/08/07 08:18:28;;;;;;;0.50;0.50;;;22.50;99.90;;;;;;5063718;28;20196;-59
2022/08/07 08:20:58;;;;;;;0.57;0.57;;;22.60;99.90;;;;;;5071016;28;20234;-61
2022/08/07 08:29:01;;;;;;;0.68;0.68;;;22.90;99.90;;;;;;5068802;28;20209;-60
2022/08/07 08:31:34;;;;;;;0.60;0.60;;;23.10;99.90;;;;;;5069395;28;20653;-60
2022/08/07 08:34:05;;;;;;;0.80;0.80;;;23.10;99.90;;;;;;5056548;28;20293;-59
2022/08/07 08:36:35;;;;;;;0.60;0.60;;;23.10;99.90;;;;;;5058777;28;20421;-59
2022/08/07 08:39:04;;;;;;;0.50;0.50;;;23.30;99.90;;;;;;5060935;28;20235;-60
2022/08/07 08:41:41;;;;;;;0.60;0.60;;;23.40;99.90;;;;;;5059136;28;20298;-60
2022/08/07 08:44:15;;;;;;;0.75;0.60;;;23.50;99.90;;;;;;5058337;28;20281;-60
2022/08/07 08:46:50;;;;;;;0.50;0.50;;;23.70;99.90;;;;;;5059005;28;20296;-59
2022/08/07 08:49:24;;;;;;;0.52;0.52;;;23.80;99.90;;;;;;5058681;28;20693;-59
2022/08/07 08:51:57;;;;;;;0.60;0.60;;;23.90;99.90;;;;;;5058592;28;20222;-59
2022/08/07 08:54:29;;;;;;;0.60;0.60;;;24.20;99.90;;;;;;5057862;28;20261;-60
2022/08/07 08:57:03;;;;;;;1.73;0.60;;;24.10;99.90;;;;;;5060933;28;20204;-59
2022/08/07 08:59:39;;;;;;;0.52;0.52;;;24.30;99.90;;;;;;5061238;28;20247;-59
2022/08/07 09:02:13;;;;;;;0.68;0.63;;;24.40;99.90;;;;;;5061240;28;20274;-61
2022/08/07 09:04:46;;;;;;;0.52;0.52;;;24.60;99.90;;;;;;5059934;28;20231;-60
2022/08/07 09:07:18;;;;;;;0.63;0.63;;;24.70;99.90;;;;;;5059927;28;20281;-61
2022/08/07 09:09:56;;;;;;;0.60;0.60;;;24.90;99.90;;;;;;5059216;28;20298;-62
2022/08/07 09:12:47;;;;;;;1.40;0.60;;;25.10;99.90;;;;;;5057785;28;20211;-60
2022/08/07 09:15:30;;;;;;;0.75;0.70;;;25.30;99.90;;;;;;5060271;28;20313;-61
2022/08/07 09:18:14;;;;;;;0.77;0.77;;;25.50;99.90;;;;;;5059069;28;20203;-61
2022/08/07 09:20:50;;;;;;;0.60;0.60;;;25.70;99.90;;;;;;5058791;28;20206;-61
2022/08/07 09:23:30;;;;;;;0.80;0.80;;;25.70;99.90;;;;;;5060276;28;20322;-60
2022/08/07 09:26:09;;;;;;;0.73;0.73;;;25.70;99.90;;;;;;5060457;28;20207;-59
2022/08/07 09:28:40;;;;;;;0.60;0.60;;;25.60;99.90;;;;;;5058426;28;20299;-60
2022/08/07 09:31:15;;;;;;;0.50;0.50;;;25.60;99.90;;;;;;5058580;28;20210;-60
2022/08/07 09:34:04;;;;;;;0.60;0.60;;;25.70;99.90;;;;;;5056122;28;20227;-59
2022/08/07 09:36:35;;;;;;;0.60;0.60;;;26.00;99.90;;;;;;5056325;28;20210;-59
2022/08/07 09:39:14;;;;;;;0.55;0.55;;;26.00;99.90;;;;;;5058110;28;20199;-60
2022/08/07 09:41:46;;;;;;;0.90;0.60;;;25.80;99.90;;;;;;5063114;28;20212;-61
2022/08/07 09:44:24;;;;;;;0.80;0.80;;;25.90;99.90;;;;;;5061794;28;20223;-60
2022/08/07 09:47:07;;;;;;;0.60;0.60;;;26.00;99.90;;;;;;5063348;28;20207;-61
2022/08/07 09:49:49;;;;;;;0.43;0.43;;;26.30;99.90;;;;;;5061671;28;20207;-61
2022/08/07 09:52:23;;;;;;;1.00;1.00;;;26.20;99.90;;;;;;5058110;28;20210;-61
2022/08/07 09:54:58;;;;;;;0.60;0.60;;;26.40;99.90;;;;;;5058313;28;20298;-61
2022/08/07 09:57:50;;;;;;;0.60;0.60;;;26.40;99.90;;;;;;5056570;28;21506;-62
2022/08/07 10:00:21;;;;;;;0.85;0.85;;;26.40;99.90;;;;;;5059483;28;20254;-60
2022/08/07 10:03:26;;;;;;;0.63;0.63;;;26.50;99.90;;;;;;5058250;28;20295;-62
2022/08/07 10:06:31;;;;;;;0.93;0.93;;;26.90;99.90;;;;;;5058933;28;20572;-61
2022/08/07 10:09:21;;;;;;;0.68;0.68;;;27.00;99.90;;;;;;5057918;28;20227;-61
2022/08/07 10:11:59;;;;;;;0.88;0.88;;;27.20;99.90;;;;;;5009265;28;21148;-61
2022/08/07 10:15:01;;;;;;;0.70;0.70;;;27.30;99.90;;;;;;5057791;28;20277;-61
2022/08/07 10:17:53;;;;;;;0.77;0.77;;;27.40;99.90;;;;;;5057353;28;20226;-60
2022/08/07 10:20:28;;;;;;;1.10;1.00;;;27.50;99.90;;;;;;5059104;28;20326;-61
2022/08/07 10:23:25;;;;;;;0.70;0.70;;;27.60;99.90;;;;;;5059364;28;20234;-61
2022/08/07 10:26:06;;;;;;;0.70;0.70;;;27.70;99.90;;;;;;5057602;28;20227;-63
2022/08/07 10:28:55;;;;;;;2.30;0.95;;;27.80;99.90;;;;;;5060417;28;20196;-63
2022/08/07 10:31:46;;;;;;;0.70;0.70;;;28.00;99.90;;;;;;5059488;28;20242;-62
2022/08/07 10:34:27;;;;;;;1.38;0.60;;;28.10;99.90;;;;;;5060119;28;20239;-61
2022/08/07 10:37:04;;;;;;;0.70;0.70;;;28.00;99.90;;;;;;5058840;28;20214;-61
2022/08/07 10:39:52;;;;;;;0.60;0.60;;;28.00;99.90;;;;;;5058479;28;20289;-61
2022/08/07 10:42:31;;;;;;;0.55;0.55;;;28.00;99.90;;;;;;5056042;28;20200;-62
2022/08/07 10:45:03;;;;;;;0.50;0.50;;;28.10;99.90;;;;;;5059810;28;20326;-61
2022/08/07 10:47:40;;;;;;;0.77;0.77;;;28.20;99.90;;;;;;5060777;28;20242;-61
2022/08/07 10:50:13;;;;;;;0.70;0.70;;;28.20;99.90;;;;;;5076706;22;20200;-64
2022/08/07 10:52:51;;;;;;;2.22;0.60;;;28.10;99.90;;;;;;5042194;28;20231;-66
2022/08/07 10:55:22;;;;;;;0.60;0.60;;;28.30;99.90;;;;;;5047167;28;20210;-67
2022/08/07 10:57:59;;;;;;;0.57;0.57;;;28.50;99.90;;;;;;5046293;28;20678;-67
2022/08/07 11:00:33;;;;;;;0.68;0.68;;;28.50;99.80;;;;;;5048377;28;20306;-65
2022/08/07 11:03:07;;;;;;;0.60;0.60;;;28.60;99.80;;;;;;5044594;28;20289;-66
2022/08/07 11:05:48;;;;;;;1.00;1.00;;;28.90;99.60;;;;;;5049052;28;20192;-66
2022/08/07 11:08:23;;;;;;;0.63;0.63;;;29.00;99.30;;;;;;5052009;28;20257;-66
2022/08/07 11:11:08;;;;;;;1.05;0.60;;;28.80;98.00;;;;;;5048483;28;20251;-66
2022/08/07 11:13:39;;;;;;;0.57;0.57;;;28.70;97.80;;;;;;5047334;28;20203;-65
2022/08/07 11:16:11;;;;;;;0.50;0.50;;;28.90;97.60;;;;;;5042515;28;20311;-67
2022/08/07 11:18:45;;;;;;;0.80;0.80;;;29.00;97.60;;;;;;5043092;28;20208;-67
2022/08/07 11:21:24;;;;;;;0.52;0.50;;;29.00;97.60;;;;;;5042215;28;21019;-66
2022/08/07 11:23:58;;;;;;;0.95;0.50;;;29.20;97.80;;;;;;5043032;28;20623;-65
2022/08/07 11:26:31;;;;;;;0.55;0.55;;;29.50;97.70;;;;;;5043770;28;20254;-66
2022/08/07 11:29:04;;;;;;;0.60;0.60;;;29.70;96.30;;;;;;5044220;28;20232;-65
2022/08/07 11:31:38;;;;;;;1.00;0.65;;;29.90;95.60;;;;;;5041600;28;20714;-67
2022/08/07 11:34:13;;;;;;;0.47;0.47;;;29.80;95.80;;;;;;5046001;28;20204;-64
2022/08/07 11:36:56;;;;;;;0.60;0.60;;;30.00;95.20;;;;;;5051558;28;20216;-66
2022/08/07 11:39:50;;;;;;;1.45;0.60;;;30.00;94.70;;;;;;5047614;28;20196;-65
2022/08/07 11:42:23;;;;;;;0.60;0.60;;;30.00;94.40;;;;;;5043540;28;20203;-65
2022/08/07 11:44:56;;;;;;;0.50;0.50;;;29.90;94.50;;;;;;5049551;28;20221;-64
2022/08/07 11:47:37;;;;;;;0.70;0.70;;;29.90;93.70;;;;;;5046353;28;20201;-67
2022/08/07 11:50:17;;;;;;;0.52;0.52;;;29.90;94.40;;;;;;5046811;28;20223;-65
2022/08/07 11:53:02;;;;;;;0.60;0.60;;;29.70;93.50;;;;;;5053107;28;20210;-64
2022/08/07 11:55:54;;;;;;;0.88;0.57;;;29.70;94.00;;;;;;5048762;28;20224;-67
2022/08/07 11:58:30;;;;;;;0.50;0.50;;;29.80;94.20;;;;;;5055847;28;20236;-65
2022/08/07 12:01:08;;;;;;;0.57;0.57;;;30.00;93.90;;;;;;5059120;28;20227;-65
2022/08/07 12:04:00;;;;;;;0.52;0.52;;;30.10;94.00;;;;;;5052994;28;20227;-66
2022/08/07 12:06:43;;;;;;;0.77;0.77;;;30.10;93.50;;;;;;5057294;28;20202;-65
2022/08/07 12:09:15;;;;;;;0.82;0.60;;;30.20;94.00;;;;;;5046857;28;20202;-67
2022/08/07 12:11:47;;;;;;;0.63;0.63;;;30.30;93.30;;;;;;5053516;28;20238;-66
2022/08/07 12:14:19;;;;;;;0.70;0.70;;;30.50;93.30;;;;;;5057055;28;20618;-65
2022/08/07 12:16:51;;;;;;;0.63;0.60;;;30.50;93.10;;;;;;5052418;28;20216;-67
2022/08/07 12:19:23;;;;;;;0.47;0.47;;;30.60;93.30;;;;;;5056853;28;20207;-66
2022/08/07 12:21:59;;;;;;;0.52;0.52;;;30.50;92.60;;;;;;5054673;28;20231;-65
2022/08/07 12:24:37;;;;;;;0.77;0.77;;;30.60;93.20;;;;;;5059773;28;20204;-65
2022/08/07 12:27:10;;;;;;;1.65;0.88;;;30.70;93.20;;;;;;5051896;28;20192;-67
2022/08/07 12:29:48;;;;;;;0.63;0.63;;;30.70;92.40;;;;;;5047701;28;20192;-65
2022/08/07 12:32:20;;;;;;;0.55;0.55;;;30.80;92.70;;;;;;5048893;28;20285;-66
2022/08/07 12:34:49;;;;;;;0.50;0.50;;;30.80;92.20;;;;;;5046210;28;20246;-66
2022/08/07 12:37:17;;;;;;;0.50;0.50;;;30.60;92.00;;;;;;5045350;28;20879;-65
2022/08/07 12:39:49;;;;;;;0.57;0.57;;;30.40;92.20;;;;;;5050218;28;20662;-66
2022/08/07 12:42:20;;;;;;;0.60;0.60;;;30.50;92.50;;;;;;5040517;28;20615;-64
2022/08/07 12:44:49;;;;;;;1.15;1.05;;;30.60;92.50;;;;;;5033944;28;20511;-64
2022/08/07 12:47:24;;;;;;;0.60;0.60;;;30.80;92.60;;;;;;5039488;28;20204;-66
2022/08/07 12:49:57;;;;;;;0.60;0.60;;;31.00;91.90;;;;;;5043292;28;20207;-66
2022/08/07 12:52:36;;;;;;;0.82;0.60;;;31.10;92.50;;;;;;5041897;28;20217;-65
2022/08/07 12:55:09;;;;;;;0.47;0.47;;;31.10;91.10;;;;;;5038378;28;20232;-66
2022/08/07 12:57:38;;;;;;;0.55;0.55;;;30.80;91.50;;;;;;5039351;28;20200;-65
2022/08/07 13:00:08;;;;;;;0.68;0.68;;;30.70;91.40;;;;;;5051167;28;20454;-64
2022/08/07 13:02:54;;;;;;;0.60;0.60;;;30.80;91.90;;;;;;5051279;28;20203;-67
2022/08/07 13:05:38;;;;;;;0.68;0.60;;;30.80;91.20;;;;;;5055474;28;20200;-67
2022/08/07 13:08:37;;;;;;;0.60;0.57;;;30.80;91.30;;;;;;5053845;28;20209;-68
2022/08/07 13:11:17;;;;;;;0.70;0.70;;;30.80;91.60;;;;;;5039954;28;20690;-67
2022/08/07 13:13:56;;;;;;;0.32;0.32;;;30.90;91.50;;;;;;5048555;28;20209;-66
2022/08/07 13:16:30;;;;;;;0.40;0.40;;;30.90;91.30;;;;;;5048201;28;20234;-65
2022/08/07 13:19:08;;;;;;;0.63;0.50;;;31.00;91.40;;;;;;5044421;28;20199;-64